sensor_id;sensor_type;location;lat;lon;timestamp;pressure;altitude;pressure_sealevel;temperature;humidity
71857;BME280;63344;46.980;28.882;2023-02-15T00:00:06;101797.81;;;3.38;71.05
71857;BME280;63344;46.980;28.882;2023-02-15T00:02:57;101794.25;;;3.33;71.12
71857;BME280;63344;46.980;28.882;2023-02-15T00:05:24;101797.78;;;3.32;71.22
71857;BME280;63344;46.980;28.882;2023-02-15T00:07:52;101794.22;;;3.28;71.71
71857;BME280;63344;46.980;28.882;2023-02-15T00:10:20;101795.03;;;3.23;71.57
71857;BME280;63344;46.980;28.882;2023-02-15T00:12:46;101793.31;;;3.25;71.58
71857;BME280;63344;46.980;28.882;2023-02-15T00:15:14;101797.66;;;3.23;71.59
71857;BME280;63344;46.980;28.882;2023-02-15T00:17:41;101796.72;;;3.16;71.97
71857;BME280;63344;46.980;28.882;2023-02-15T00:20:09;101801.91;;;3.11;72.11
71857;BME280;63344;46.980;28.882;2023-02-15T00:22:36;101802.75;;;3.09;72.22
71857;BME280;63344;46.980;28.882;2023-02-15T00:25:04;101811.41;;;3.00;72.49
71857;BME280;63344;46.980;28.882;2023-02-15T00:27:31;101815.72;;;2.92;72.30
71857;BME280;63344;46.980;28.882;2023-02-15T00:29:59;101822.59;;;2.84;72.89
71857;BME280;63344;46.980;28.882;2023-02-15T00:32:27;101811.13;;;2.74;72.98
71857;BME280;63344;46.980;28.882;2023-02-15T00:34:54;101824.09;;;2.65;73.44
71857;BME280;63344;46.980;28.882;2023-02-15T00:37:21;101811.72;;;2.54;73.88
71857;BME280;63344;46.980;28.882;2023-02-15T00:39:48;101818.72;;;2.54;74.04
71857;BME280;63344;46.980;28.882;2023-02-15T00:42:16;101817.72;;;2.47;74.27
71857;BME280;63344;46.980;28.882;2023-02-15T00:44:43;101817.69;;;2.43;74.58
71857;BME280;63344;46.980;28.882;2023-02-15T00:47:10;101815.81;;;2.34;74.70
71857;BME280;63344;46.980;28.882;2023-02-15T00:49:38;101807.94;;;2.32;74.79
71857;BME280;63344;46.980;28.882;2023-02-15T00:52:05;101820.06;;;2.26;75.24
71857;BME280;63344;46.980;28.882;2023-02-15T00:54:33;101825.22;;;2.21;75.41
71857;BME280;63344;46.980;28.882;2023-02-15T00:57:01;101824.28;;;2.16;75.24
71857;BME280;63344;46.980;28.882;2023-02-15T00:59:28;101829.41;;;2.08;75.74
71857;BME280;63344;46.980;28.882;2023-02-15T01:01:55;101824.91;;;2.01;75.73
71857;BME280;63344;46.980;28.882;2023-02-15T01:04:23;101833.63;;;1.98;75.86
71857;BME280;63344;46.980;28.882;2023-02-15T01:06:50;101821.25;;;1.91;76.00
71857;BME280;63344;46.980;28.882;2023-02-15T01:09:17;101819.44;;;1.87;76.18
71857;BME280;63344;46.980;28.882;2023-02-15T01:11:44;101826.47;;;1.88;76.39
71857;BME280;63344;46.980;28.882;2023-02-15T01:14:12;101823.75;;;1.84;77.04
71857;BME280;63344;46.980;28.882;2023-02-15T01:16:39;101829.84;;;1.81;76.72
71857;BME280;63344;46.980;28.882;2023-02-15T01:19:08;101833.22;;;1.74;76.84
71857;BME280;63344;46.980;28.882;2023-02-15T01:21:35;101827.91;;;1.71;77.16
71857;BME280;63344;46.980;28.882;2023-02-15T01:24:03;101845.34;;;1.69;77.27
71857;BME280;63344;46.980;28.882;2023-02-15T01:26:30;101824.28;;;1.63;77.35
71857;BME280;63344;46.980;28.882;2023-02-15T01:28:57;101840.84;;;1.60;77.75
71857;BME280;63344;46.980;28.882;2023-02-15T01:31:24;101831.09;;;1.53;77.76
71857;BME280;63344;46.980;28.882;2023-02-15T01:33:52;101830.13;;;1.48;78.01
71857;BME280;63344;46.980;28.882;2023-02-15T01:36:19;101837.06;;;1.44;77.96
71857;BME280;63344;46.980;28.882;2023-02-15T01:38:46;101838.75;;;1.42;78.19
71857;BME280;63344;46.980;28.882;2023-02-15T01:41:14;101825.50;;;1.33;78.52
71857;BME280;63344;46.980;28.882;2023-02-15T01:43:53;101829.75;;;1.28;78.87
71857;BME280;63344;46.980;28.882;2023-02-15T01:46:24;101852.47;;;1.29;79.13
71857;BME280;63344;46.980;28.882;2023-02-15T01:49:01;101855.09;;;1.29;78.92
71857;BME280;63344;46.980;28.882;2023-02-15T01:51:30;101848.94;;;1.27;79.34
71857;BME280;63344;46.980;28.882;2023-02-15T01:54:11;101831.38;;;1.21;79.54
71857;BME280;63344;46.980;28.882;2023-02-15T01:56:42;101845.41;;;1.25;79.48
71857;BME280;63344;46.980;28.882;2023-02-15T01:59:14;101845.38;;;1.23;79.86
71857;BME280;63344;46.980;28.882;2023-02-15T02:01:43;101848.84;;;1.22;79.66
71857;BME280;63344;46.980;28.882;2023-02-15T02:04:31;101842.72;;;1.20;79.47
71857;BME280;63344;46.980;28.882;2023-02-15T02:07:00;101838.28;;;1.16;80.03
71857;BME280;63344;46.980;28.882;2023-02-15T02:09:29;101833.03;;;1.17;80.09
71857;BME280;63344;46.980;28.882;2023-02-15T02:11:56;101843.53;;;1.19;80.03
71857;BME280;63344;46.980;28.882;2023-02-15T02:14:24;101835.53;;;1.11;80.04
71857;BME280;63344;46.980;28.882;2023-02-15T02:20:08;101846.97;;;1.15;80.08
71857;BME280;63344;46.980;28.882;2023-02-15T02:23:24;101846.00;;;1.11;80.49
71857;BME280;63344;46.980;28.882;2023-02-15T02:34:27;101852.06;;;1.09;80.97
71857;BME280;63344;46.980;28.882;2023-02-15T02:39:37;101857.31;;;1.09;80.57
71857;BME280;63344;46.980;28.882;2023-02-15T02:42:18;101856.50;;;1.13;80.66
71857;BME280;63344;46.980;28.882;2023-02-15T02:45:04;101860.00;;;1.13;80.53
71857;BME280;63344;46.980;28.882;2023-02-15T02:47:37;101860.94;;;1.17;80.71
71857;BME280;63344;46.980;28.882;2023-02-15T02:50:09;101866.22;;;1.18;80.35
71857;BME280;63344;46.980;28.882;2023-02-15T02:52:48;101864.44;;;1.16;80.71
71857;BME280;63344;46.980;28.882;2023-02-15T02:58:14;101877.56;;;1.19;80.67
71857;BME280;63344;46.980;28.882;2023-02-15T03:03:30;101881.91;;;1.18;80.24
71857;BME280;63344;46.980;28.882;2023-02-15T03:06:03;101871.38;;;1.15;80.33
71857;BME280;63344;46.980;28.882;2023-02-15T03:08:37;101875.91;;;1.23;80.31
71857;BME280;63344;46.980;28.882;2023-02-15T03:11:05;101874.13;;;1.22;80.56
71857;BME280;63344;46.980;28.882;2023-02-15T03:13:35;101887.16;;;1.18;80.59
71857;BME280;63344;46.980;28.882;2023-02-15T03:16:04;101873.84;;;1.08;80.35
71857;BME280;63344;46.980;28.882;2023-02-15T03:19:02;101873.66;;;0.98;80.59
71857;BME280;63344;46.980;28.882;2023-02-15T03:21:55;101881.44;;;0.94;80.58
71857;BME280;63344;46.980;28.882;2023-02-15T03:27:27;101879.56;;;0.88;81.22
71857;BME280;63344;46.980;28.882;2023-02-15T03:29:58;101878.53;;;0.82;81.19
71857;BME280;63344;46.980;28.882;2023-02-15T03:32:28;101894.25;;;0.83;81.25
71857;BME280;63344;46.980;28.882;2023-02-15T03:34:58;101880.19;;;0.76;81.23
71857;BME280;63344;46.980;28.882;2023-02-15T03:37:35;101884.44;;;0.73;81.77
71857;BME280;63344;46.980;28.882;2023-02-15T03:40:10;101885.22;;;0.69;81.59
71857;BME280;63344;46.980;28.882;2023-02-15T03:49:19;101896.38;;;0.60;82.05
71857;BME280;63344;46.980;28.882;2023-02-15T03:51:51;101892.75;;;0.55;82.21
71857;BME280;63344;46.980;28.882;2023-02-15T03:54:31;101905.81;;;0.55;82.47
71857;BME280;63344;46.980;28.882;2023-02-15T03:57:21;101894.50;;;0.54;83.04
71857;BME280;63344;46.980;28.882;2023-02-15T04:00:19;101892.53;;;0.44;82.89
71857;BME280;63344;46.980;28.882;2023-02-15T04:05:44;101903.75;;;0.42;83.08
71857;BME280;63344;46.980;28.882;2023-02-15T04:08:13;101912.38;;;0.37;83.53
71857;BME280;63344;46.980;28.882;2023-02-15T04:10:40;101903.63;;;0.35;83.18
71857;BME280;63344;46.980;28.882;2023-02-15T04:13:29;101910.47;;;0.30;83.46
71857;BME280;63344;46.980;28.882;2023-02-15T04:15:57;101908.66;;;0.28;83.25
71857;BME280;63344;46.980;28.882;2023-02-15T04:18:38;101911.28;;;0.28;83.39
71857;BME280;63344;46.980;28.882;2023-02-15T04:21:30;101907.69;;;0.23;83.35
71857;BME280;63344;46.980;28.882;2023-02-15T04:24:17;101917.16;;;0.19;83.46
71857;BME280;63344;46.980;28.882;2023-02-15T04:27:03;101910.00;;;0.12;83.77
71857;BME280;63344;46.980;28.882;2023-02-15T04:29:33;101910.06;;;0.13;83.82
71857;BME280;63344;46.980;28.882;2023-02-15T04:32:01;101911.75;;;0.11;84.16
71857;BME280;63344;46.980;28.882;2023-02-15T04:34:29;101921.28;;;0.09;83.83
71857;BME280;63344;46.980;28.882;2023-02-15T04:36:58;101919.53;;;0.08;84.37
71857;BME280;63344;46.980;28.882;2023-02-15T04:39:25;101912.47;;;0.06;84.56
71857;BME280;63344;46.980;28.882;2023-02-15T04:41:52;101908.06;;;0.03;84.27
71857;BME280;63344;46.980;28.882;2023-02-15T04:44:20;101911.53;;;0.02;84.29
71857;BME280;63344;46.980;28.882;2023-02-15T04:46:47;101903.53;;;-0.04;84.30
71857;BME280;63344;46.980;28.882;2023-02-15T04:49:14;101919.22;;;-0.03;84.38
71857;BME280;63344;46.980;28.882;2023-02-15T04:51:41;101916.47;;;-0.09;84.58
71857;BME280;63344;46.980;28.882;2023-02-15T04:54:09;101919.06;;;-0.09;84.66
71857;BME280;63344;46.980;28.882;2023-02-15T04:56:36;101926.00;;;-0.11;84.60
71857;BME280;63344;46.980;28.882;2023-02-15T04:59:05;101936.53;;;-0.06;85.03
71857;BME280;63344;46.980;28.882;2023-02-15T05:01:32;101935.66;;;-0.07;85.11
71857;BME280;63344;46.980;28.882;2023-02-15T05:04:01;101933.16;;;-0.04;85.10
71857;BME280;63344;46.980;28.882;2023-02-15T05:06:29;101935.66;;;-0.07;85.07
71857;BME280;63344;46.980;28.882;2023-02-15T05:08:58;101937.31;;;-0.10;84.76
71857;BME280;63344;46.980;28.882;2023-02-15T05:11:27;101951.34;;;-0.07;85.26
71857;BME280;63344;46.980;28.882;2023-02-15T05:13:57;101932.03;;;-0.13;85.55
71857;BME280;63344;46.980;28.882;2023-02-15T05:16:26;101949.53;;;-0.09;85.13
71857;BME280;63344;46.980;28.882;2023-02-15T05:18:55;101952.09;;;-0.11;85.40
71857;BME280;63344;46.980;28.882;2023-02-15T05:21:22;101960.81;;;-0.10;85.11
71857;BME280;63344;46.980;28.882;2023-02-15T05:23:49;101956.50;;;-0.10;85.20
71857;BME280;63344;46.980;28.882;2023-02-15T05:26:19;101954.66;;;-0.14;85.27
71857;BME280;63344;46.980;28.882;2023-02-15T05:29:06;101969.66;;;-0.05;85.32
71857;BME280;63344;46.980;28.882;2023-02-15T05:31:35;101966.13;;;-0.07;85.21
71857;BME280;63344;46.980;28.882;2023-02-15T05:34:08;101960.81;;;-0.10;85.09
71857;BME280;63344;46.980;28.882;2023-02-15T05:36:36;101969.66;;;-0.05;85.10
71857;BME280;63344;46.980;28.882;2023-02-15T05:39:20;101969.78;;;-0.01;85.24
71857;BME280;63344;46.980;28.882;2023-02-15T05:41:49;101963.84;;;0.05;84.91
71857;BME280;63344;46.980;28.882;2023-02-15T05:44:17;101966.38;;;0.02;84.88
71857;BME280;63344;46.980;28.882;2023-02-15T05:46:51;101969.94;;;0.06;84.75
71857;BME280;63344;46.980;28.882;2023-02-15T05:49:23;101981.41;;;0.11;84.76
71857;BME280;63344;46.980;28.882;2023-02-15T05:51:50;101978.84;;;0.12;84.64
71857;BME280;63344;46.980;28.882;2023-02-15T05:54:19;101986.69;;;0.14;84.68
71857;BME280;63344;46.980;28.882;2023-02-15T05:56:46;101985.81;;;0.13;84.54
71857;BME280;63344;46.980;28.882;2023-02-15T05:59:17;101973.59;;;0.12;84.61
71857;BME280;63344;46.980;28.882;2023-02-15T06:01:44;101989.44;;;0.18;84.37
71857;BME280;63344;46.980;28.882;2023-02-15T06:04:12;101979.75;;;0.16;84.53
71857;BME280;63344;46.980;28.882;2023-02-15T06:06:39;101993.03;;;0.22;84.16
71857;BME280;63344;46.980;28.882;2023-02-15T06:09:09;101990.41;;;0.24;84.14
71857;BME280;63344;46.980;28.882;2023-02-15T06:11:37;101978.31;;;0.27;83.76
71857;BME280;63344;46.980;28.882;2023-02-15T06:14:05;101981.72;;;0.23;84.05
71857;BME280;63344;46.980;28.882;2023-02-15T06:16:32;101978.25;;;0.24;83.66
71857;BME280;63344;46.980;28.882;2023-02-15T06:19:00;101977.50;;;0.28;83.61
71857;BME280;63344;46.980;28.882;2023-02-15T06:21:30;101980.97;;;0.29;83.85
71857;BME280;63344;46.980;28.882;2023-02-15T06:24:00;101983.72;;;0.33;83.58
71857;BME280;63344;46.980;28.882;2023-02-15T06:26:27;101976.72;;;0.32;83.67
71857;BME280;63344;46.980;28.882;2023-02-15T06:28:55;101980.31;;;0.37;83.66
71857;BME280;63344;46.980;28.882;2023-02-15T06:31:22;101983.94;;;0.43;83.56
71857;BME280;63344;46.980;28.882;2023-02-15T06:33:50;101981.47;;;0.49;83.37
71857;BME280;63344;46.980;28.882;2023-02-15T06:36:17;101990.38;;;0.57;83.15
71857;BME280;63344;46.980;28.882;2023-02-15T06:38:44;101991.47;;;0.65;82.79
71857;BME280;63344;46.980;28.882;2023-02-15T06:41:11;101987.25;;;0.70;82.64
71857;BME280;63344;46.980;28.882;2023-02-15T06:43:40;101980.31;;;0.74;82.42
71857;BME280;63344;46.980;28.882;2023-02-15T06:46:07;101991.06;;;0.85;82.18
71857;BME280;63344;46.980;28.882;2023-02-15T06:48:35;101984.16;;;0.88;81.85
71857;BME280;63344;46.980;28.882;2023-02-15T06:51:02;101997.56;;;1.02;81.32
71857;BME280;63344;46.980;28.882;2023-02-15T06:53:30;101990.78;;;1.10;81.14
71857;BME280;63344;46.980;28.882;2023-02-15T06:56:04;101978.78;;;1.22;80.90
71857;BME280;63344;46.980;28.882;2023-02-15T06:58:37;101985.22;;;1.37;80.24
71857;BME280;63344;46.980;28.882;2023-02-15T07:01:05;101996.91;;;1.53;79.64
71857;BME280;63344;46.980;28.882;2023-02-15T07:03:33;101972.59;;;1.59;78.78
71857;BME280;63344;46.980;28.882;2023-02-15T07:06:02;101974.44;;;1.65;78.75
71857;BME280;63344;46.980;28.882;2023-02-15T07:08:30;101978.81;;;1.66;78.00
71857;BME280;63344;46.980;28.882;2023-02-15T07:10:57;101984.16;;;1.70;77.69
71857;BME280;63344;46.980;28.882;2023-02-15T07:13:45;101986.88;;;1.75;77.15
71857;BME280;63344;46.980;28.882;2023-02-15T07:16:13;101973.81;;;1.76;77.25
71857;BME280;63344;46.980;28.882;2023-02-15T07:18:42;101981.72;;;1.79;76.78
71857;BME280;63344;46.980;28.882;2023-02-15T07:21:09;101980.09;;;1.86;76.97
71857;BME280;63344;46.980;28.882;2023-02-15T07:23:38;101978.44;;;1.90;76.13
71857;BME280;63344;46.980;28.882;2023-02-15T07:26:06;101980.09;;;1.86;75.32
71857;BME280;63344;46.980;28.882;2023-02-15T07:28:35;101973.09;;;1.85;74.67
71857;BME280;63344;46.980;28.882;2023-02-15T07:31:17;101977.31;;;1.77;74.57
71857;BME280;63344;46.980;28.882;2023-02-15T07:33:46;101984.41;;;1.83;75.30
71857;BME280;63344;46.980;28.882;2023-02-15T07:36:14;101980.91;;;1.84;74.76
71857;BME280;63344;46.980;28.882;2023-02-15T07:38:41;101977.63;;;1.95;74.34
71857;BME280;63344;46.980;28.882;2023-02-15T07:41:12;101985.69;;;2.05;73.89
71857;BME280;63344;46.980;28.882;2023-02-15T07:43:42;101983.13;;;2.09;73.92
71857;BME280;63344;46.980;28.882;2023-02-15T07:46:15;101982.38;;;2.15;73.59
71857;BME280;63344;46.980;28.882;2023-02-15T07:48:50;101971.94;;;2.18;72.78
71857;BME280;63344;46.980;28.882;2023-02-15T07:51:17;101978.03;;;2.17;72.56
71857;BME280;63344;46.980;28.882;2023-02-15T07:53:46;101979.88;;;2.23;72.22
71857;BME280;63344;46.980;28.882;2023-02-15T07:56:15;101964.22;;;2.26;71.32
71857;BME280;63344;46.980;28.882;2023-02-15T07:58:42;101962.50;;;2.28;71.18
71857;BME280;63344;46.980;28.882;2023-02-15T08:01:23;101968.72;;;2.34;70.00
71857;BME280;63344;46.980;28.882;2023-02-15T08:03:53;101962.72;;;2.42;69.86
71857;BME280;63344;46.980;28.882;2023-02-15T08:06:28;101964.59;;;2.49;69.42
71857;BME280;63344;46.980;28.882;2023-02-15T08:08:56;101968.28;;;2.62;69.19
71857;BME280;63344;46.980;28.882;2023-02-15T08:11:31;101974.50;;;2.67;69.58
71857;BME280;63344;46.980;28.882;2023-02-15T08:14:17;101964.88;;;2.66;69.41
71857;BME280;63344;46.980;28.882;2023-02-15T08:16:51;101957.00;;;2.67;69.35
71857;BME280;63344;46.980;28.882;2023-02-15T08:19:23;101964.88;;;2.67;69.40
71857;BME280;63344;46.980;28.882;2023-02-15T08:21:56;101971.88;;;2.67;68.60
71857;BME280;63344;46.980;28.882;2023-02-15T08:24:28;101971.94;;;2.70;67.79
71857;BME280;63344;46.980;28.882;2023-02-15T08:26:57;101960.69;;;2.78;68.32
71857;BME280;63344;46.980;28.882;2023-02-15T08:29:28;101973.09;;;2.90;68.33
71857;BME280;63344;46.980;28.882;2023-02-15T08:31:57;101955.66;;;2.95;67.67
71857;BME280;63344;46.980;28.882;2023-02-15T08:34:26;101971.59;;;3.06;66.99
71857;BME280;63344;46.980;28.882;2023-02-15T08:36:55;101964.72;;;3.17;66.24
71857;BME280;63344;46.980;28.882;2023-02-15T08:39:23;101959.69;;;3.34;64.26
71857;BME280;63344;46.980;28.882;2023-02-15T08:41:52;101951.94;;;3.44;64.56
71857;BME280;63344;46.980;28.882;2023-02-15T08:44:20;101948.72;;;3.68;63.63
71857;BME280;63344;46.980;28.882;2023-02-15T08:46:49;101962.91;;;3.84;62.78
71857;BME280;63344;46.980;28.882;2023-02-15T08:49:33;101939.34;;;3.94;61.97
71857;BME280;63344;46.980;28.882;2023-02-15T08:52:03;101954.44;;;4.14;61.48
71857;BME280;63344;46.980;28.882;2023-02-15T08:54:31;101945.75;;;4.19;60.33
71857;BME280;63344;46.980;28.882;2023-02-15T08:56:59;101951.03;;;4.24;59.97
71857;BME280;63344;46.980;28.882;2023-02-15T08:59:27;101953.81;;;4.43;59.55
71857;BME280;63344;46.980;28.882;2023-02-15T09:01:55;101960.09;;;4.60;59.35
71857;BME280;63344;46.980;28.882;2023-02-15T09:04:22;101965.47;;;4.78;58.73
71857;BME280;63344;46.980;28.882;2023-02-15T09:06:50;101959.38;;;4.86;57.00
71857;BME280;63344;46.980;28.882;2023-02-15T09:09:19;101963.72;;;4.77;56.11
71857;BME280;63344;46.980;28.882;2023-02-15T09:11:48;101961.97;;;4.81;55.86
71857;BME280;63344;46.980;28.882;2023-02-15T09:14:23;101959.41;;;4.90;54.99
71857;BME280;63344;46.980;28.882;2023-02-15T09:17:18;101962.28;;;5.35;53.72
71857;BME280;63344;46.980;28.882;2023-02-15T09:19:53;101968.66;;;6.00;52.82
71857;BME280;63344;46.980;28.882;2023-02-15T09:22:20;101974.00;;;6.29;48.96
71857;BME280;63344;46.980;28.882;2023-02-15T09:24:49;101966.91;;;5.97;48.96
71857;BME280;63344;46.980;28.882;2023-02-15T09:27:19;101958.84;;;5.45;49.84
71857;BME280;63344;46.980;28.882;2023-02-15T09:29:47;101958.16;;;6.09;49.94
71857;BME280;63344;46.980;28.882;2023-02-15T09:32:17;101947.13;;;7.86;45.20
71857;BME280;63344;46.980;28.882;2023-02-15T09:34:46;101941.06;;;7.73;46.99
71857;BME280;63344;46.980;28.882;2023-02-15T09:37:14;101946.78;;;8.37;44.08
71857;BME280;63344;46.980;28.882;2023-02-15T09:39:43;101939.06;;;8.11;44.57
71857;BME280;63344;46.980;28.882;2023-02-15T09:48:17;101963.31;;;5.74;49.50
71857;BME280;63344;46.980;28.882;2023-02-15T09:51:20;101962.25;;;5.30;51.14
71857;BME280;63344;46.980;28.882;2023-02-15T09:54:19;101967.47;;;5.21;49.95
71857;BME280;63344;46.980;28.882;2023-02-15T09:56:58;101970.97;;;5.15;48.63
71857;BME280;63344;46.980;28.882;2023-02-15T10:02:44;101956.25;;;8.67;41.72
71857;BME280;63344;46.980;28.882;2023-02-15T10:10:47;101962.16;;;5.15;49.91
71857;BME280;63344;46.980;28.882;2023-02-15T10:13:22;101963.84;;;4.97;50.58
71857;BME280;63344;46.980;28.882;2023-02-15T10:19:12;101950.66;;;4.90;51.13
71857;BME280;63344;46.980;28.882;2023-02-15T10:27:21;101944.94;;;6.75;47.14
71857;BME280;63344;46.980;28.882;2023-02-15T10:32:36;101928.09;;;9.41;41.83
71857;BME280;63344;46.980;28.882;2023-02-15T11:00:43;101916.66;;;5.48;47.83
71857;BME280;63344;46.980;28.882;2023-02-15T11:08:43;101904.50;;;5.96;46.32
71857;BME280;63344;46.980;28.882;2023-02-15T11:11:41;101922.88;;;5.59;47.69
71857;BME280;63344;46.980;28.882;2023-02-15T11:16:48;101928.09;;;5.46;48.22
71857;BME280;63344;46.980;28.882;2023-02-15T11:19:26;101925.44;;;5.39;48.71
71857;BME280;63344;46.980;28.882;2023-02-15T11:22:02;101926.25;;;5.31;49.17
71857;BME280;63344;46.980;28.882;2023-02-15T11:24:41;101931.59;;;5.46;48.70
71857;BME280;63344;46.980;28.882;2023-02-15T11:27:16;101934.25;;;5.54;48.62
71857;BME280;63344;46.980;28.882;2023-02-15T11:32:58;101929.09;;;6.77;45.94
71857;BME280;63344;46.980;28.882;2023-02-15T11:35:42;101915.97;;;6.23;46.33
71857;BME280;63344;46.980;28.882;2023-02-15T11:38:26;101928.16;;;5.66;47.33
71857;BME280;63344;46.980;28.882;2023-02-15T11:41:03;101928.03;;;5.35;47.91
71857;BME280;63344;46.980;28.882;2023-02-15T11:43:43;101929.88;;;5.62;48.14
71857;BME280;63344;46.980;28.882;2023-02-15T11:46:16;101906.91;;;7.35;44.66
71857;BME280;63344;46.980;28.882;2023-02-15T11:48:44;101915.88;;;6.88;45.17
71857;BME280;63344;46.980;28.882;2023-02-15T11:51:14;101913.28;;;6.06;45.95
71857;BME280;63344;46.980;28.882;2023-02-15T11:53:43;101924.63;;;5.79;46.61
71857;BME280;63344;46.980;28.882;2023-02-15T11:56:21;101912.44;;;6.00;46.70
71857;BME280;63344;46.980;28.882;2023-02-15T11:59:09;101922.03;;;5.87;46.87
71857;BME280;63344;46.980;28.882;2023-02-15T12:01:46;101915.06;;;6.04;47.40
71857;BME280;63344;46.980;28.882;2023-02-15T12:04:30;101925.59;;;6.60;45.86
71857;BME280;63344;46.980;28.882;2023-02-15T12:07:23;101919.38;;;6.81;45.54
71857;BME280;63344;46.980;28.882;2023-02-15T12:10:04;101897.44;;;8.28;41.74
71857;BME280;63344;46.980;28.882;2023-02-15T12:12:44;101912.09;;;8.69;41.07
71857;BME280;63344;46.980;28.882;2023-02-15T12:15:13;101911.78;;;10.24;39.28
71857;BME280;63344;46.980;28.882;2023-02-15T12:17:51;101901.91;;;10.84;37.02
71857;BME280;63344;46.980;28.882;2023-02-15T12:22:53;101916.38;;;10.69;36.16
71857;BME280;63344;46.980;28.882;2023-02-15T12:25:51;101895.28;;;9.46;37.46
71857;BME280;63344;46.980;28.882;2023-02-15T12:28:48;101900.47;;;10.66;37.52
71857;BME280;63344;46.980;28.882;2023-02-15T12:31:39;101888.28;;;11.82;35.20
71857;BME280;63344;46.980;28.882;2023-02-15T12:34:23;101906.59;;;12.34;33.68
71857;BME280;63344;46.980;28.882;2023-02-15T12:36:54;101907.09;;;11.74;33.25
71857;BME280;63344;46.980;28.882;2023-02-15T12:39:29;101905.41;;;11.71;34.20
71857;BME280;63344;46.980;28.882;2023-02-15T12:42:16;101902.66;;;11.34;33.75
71857;BME280;63344;46.980;28.882;2023-02-15T12:45:00;101906.91;;;9.34;36.58
71857;BME280;63344;46.980;28.882;2023-02-15T12:47:30;101894.72;;;8.34;38.83
71857;BME280;63344;46.980;28.882;2023-02-15T12:50:09;101914.22;;;8.29;39.92
71857;BME280;63344;46.980;28.882;2023-02-15T12:52:50;101913.28;;;9.21;38.36
71857;BME280;63344;46.980;28.882;2023-02-15T12:55:27;101914.97;;;8.48;38.59
71857;BME280;63344;46.980;28.882;2023-02-15T12:58:18;101914.09;;;9.26;38.49
71857;BME280;63344;46.980;28.882;2023-02-15T13:03:29;101912.69;;;8.94;37.79
71857;BME280;63344;46.980;28.882;2023-02-15T13:05:57;101906.41;;;8.12;39.85
71857;BME280;63344;46.980;28.882;2023-02-15T13:08:28;101899.78;;;7.49;41.09
71857;BME280;63344;46.980;28.882;2023-02-15T13:11:09;101899.00;;;7.26;42.58
71857;BME280;63344;46.980;28.882;2023-02-15T13:16:39;101898.00;;;7.48;41.48
71857;BME280;63344;46.980;28.882;2023-02-15T13:19:18;101891.16;;;7.04;41.96
71857;BME280;63344;46.980;28.882;2023-02-15T13:21:48;101921.22;;;6.54;43.14
71857;BME280;63344;46.980;28.882;2023-02-15T13:24:26;101906.25;;;6.42;43.87
71857;BME280;63344;46.980;28.882;2023-02-15T13:26:57;101895.69;;;6.57;43.87
71857;BME280;63344;46.980;28.882;2023-02-15T13:29:43;101907.13;;;6.61;43.30
71857;BME280;63344;46.980;28.882;2023-02-15T13:32:37;101902.69;;;6.77;42.69
71857;BME280;63344;46.980;28.882;2023-02-15T13:35:16;101899.94;;;7.11;42.58
71857;BME280;63344;46.980;28.882;2023-02-15T13:40:55;101901.59;;;7.38;42.00
71857;BME280;63344;46.980;28.882;2023-02-15T13:49:13;101915.00;;;6.87;42.55
71857;BME280;63344;46.980;28.882;2023-02-15T13:52:16;101905.38;;;6.48;43.48
71857;BME280;63344;46.980;28.882;2023-02-15T14:03:41;101904.50;;;6.60;43.09
71857;BME280;63344;46.980;28.882;2023-02-15T14:14:37;101907.97;;;5.92;43.59
71857;BME280;63344;46.980;28.882;2023-02-15T14:20:27;101916.72;;;5.79;43.64
71857;BME280;63344;46.980;28.882;2023-02-15T14:23:24;101911.44;;;5.73;43.51
71857;BME280;63344;46.980;28.882;2023-02-15T14:28:56;101912.41;;;5.98;42.67
71857;BME280;63344;46.980;28.882;2023-02-15T14:31:35;101908.03;;;6.06;42.31
71857;BME280;63344;46.980;28.882;2023-02-15T14:34:07;101898.34;;;5.96;42.75
71857;BME280;63344;46.980;28.882;2023-02-15T14:36:44;101919.38;;;5.81;43.22
71857;BME280;63344;46.980;28.882;2023-02-15T14:42:21;101920.19;;;5.55;43.20
71857;BME280;63344;46.980;28.882;2023-02-15T14:45:13;101929.81;;;5.36;43.72
71857;BME280;63344;46.980;28.882;2023-02-15T14:47:53;101922.69;;;5.21;44.04
71857;BME280;63344;46.980;28.882;2023-02-15T14:56:20;101941.00;;;4.95;45.17
71857;BME280;63344;46.980;28.882;2023-02-15T15:01:42;101932.16;;;4.82;44.83
71857;BME280;63344;46.980;28.882;2023-02-15T15:04:25;101940.00;;;4.74;44.95
71857;BME280;63344;46.980;28.882;2023-02-15T15:09:37;101941.72;;;4.68;45.04
71857;BME280;63344;46.980;28.882;2023-02-15T15:14:53;101951.31;;;4.61;45.66
71857;BME280;63344;46.980;28.882;2023-02-15T15:22:35;101953.81;;;4.43;45.77
71857;BME280;63344;46.980;28.882;2023-02-15T15:27:57;101960.75;;;4.34;45.97
71857;BME280;63344;46.980;28.882;2023-02-15T15:43:57;101971.19;;;4.25;46.24
71857;BME280;63344;46.980;28.882;2023-02-15T15:49:37;101966.75;;;4.18;46.37
71857;BME280;63344;46.980;28.882;2023-02-15T15:52:19;101978.13;;;4.17;46.61
71857;BME280;63344;46.980;28.882;2023-02-15T15:54:51;101965.84;;;4.16;45.93
71857;BME280;63344;46.980;28.882;2023-02-15T15:57:39;101979.84;;;4.15;46.08
71857;BME280;63344;46.980;28.882;2023-02-15T16:00:41;101976.38;;;4.16;45.85
71857;BME280;63344;46.980;28.882;2023-02-15T16:03:21;101966.72;;;4.13;46.03
71857;BME280;63344;46.980;28.882;2023-02-15T16:05:49;101981.59;;;4.13;46.27
71857;BME280;63344;46.980;28.882;2023-02-15T16:08:36;101982.41;;;4.07;46.05
71857;BME280;63344;46.980;28.882;2023-02-15T16:11:16;101984.97;;;3.99;46.01
71857;BME280;63344;46.980;28.882;2023-02-15T16:13:47;101987.50;;;3.93;46.09
71857;BME280;63344;46.980;28.882;2023-02-15T16:16:20;101996.28;;;3.92;46.39